createdAt,value
2023-04-26T00:00:02.306Z,1.70
2023-04-26T00:02:54.619Z,1.50
2023-04-26T00:05:23.056Z,1.60
2023-04-26T00:07:51.467Z,1.50
2023-04-26T00:10:19.629Z,1.60
2023-04-26T00:12:47.708Z,1.70
2023-04-26T00:15:15.954Z,1.50
2023-04-26T00:17:44.291Z,1.70
2023-04-26T00:20:13.701Z,1.70
2023-04-26T00:22:41.944Z,1.70
2023-04-26T00:25:14.573Z,1.60
2023-04-26T00:27:43.033Z,1.70
2023-04-26T00:30:11.787Z,1.90
2023-04-26T00:32:40.242Z,1.70
2023-04-26T00:35:09.190Z,1.90
2023-04-26T00:37:37.386Z,1.80
2023-04-26T00:40:06.835Z,1.80
2023-04-26T00:42:35.116Z,1.90
2023-04-26T00:45:04.130Z,1.70
2023-04-26T00:47:32.600Z,1.60
2023-04-26T00:50:02.108Z,1.70
2023-04-26T00:52:31.921Z,1.80
2023-04-26T00:55:00.193Z,1.80
2023-04-26T00:57:28.774Z,1.90
2023-04-26T00:59:56.984Z,1.80
2023-04-26T01:02:25.813Z,1.90
2023-04-26T01:04:54.223Z,1.80
2023-04-26T01:07:22.401Z,2.20
2023-04-26T01:09:54.772Z,1.70
2023-04-26T01:12:24.472Z,1.80
2023-04-26T01:14:53.374Z,1.90
2023-04-26T01:17:21.483Z,1.80
2023-04-26T01:19:53.829Z,1.90
2023-04-26T01:22:21.890Z,1.90
2023-04-26T01:24:53.042Z,2.00
2023-04-26T01:27:21.640Z,2.00
2023-04-26T01:29:49.809Z,2.40
2023-04-26T01:32:18.201Z,2.10
2023-04-26T01:34:46.666Z,2.20
2023-04-26T01:37:14.820Z,2.20
2023-04-26T01:39:42.838Z,2.30
2023-04-26T01:42:11.046Z,2.00
2023-04-26T01:44:39.752Z,2.40
2023-04-26T01:47:07.821Z,2.70
2023-04-26T01:49:38.968Z,2.40
2023-04-26T01:52:07.033Z,2.90
2023-04-26T01:54:35.110Z,2.70
2023-04-26T01:57:03.178Z,2.70
2023-04-26T01:59:31.252Z,2.70
2023-04-26T02:02:00.782Z,3.10
2023-04-26T02:04:30.107Z,3.20
2023-04-26T02:06:58.332Z,2.80
2023-04-26T02:09:26.419Z,3.20
2023-04-26T02:11:54.720Z,2.80
2023-04-26T02:14:27.381Z,2.50
2023-04-26T02:16:55.438Z,2.60
2023-04-26T02:19:23.680Z,2.50
2023-04-26T02:21:52.808Z,2.80
2023-04-26T02:24:22.218Z,2.80
2023-04-26T02:26:54.852Z,3.10
2023-04-26T02:29:36.203Z,3.20
2023-04-26T02:32:08.796Z,3.00
2023-04-26T02:34:36.918Z,3.00
2023-04-26T02:37:05.552Z,3.10
2023-04-26T02:39:34.006Z,3.00
2023-04-26T02:42:02.438Z,3.40
2023-04-26T02:44:31.295Z,3.10
2023-04-26T02:47:04.051Z,3.00
2023-04-26T02:49:32.265Z,2.90
2023-04-26T02:52:00.539Z,2.80
2023-04-26T02:54:28.920Z,3.40
2023-04-26T02:56:59.032Z,3.50
2023-04-26T02:59:28.646Z,3.20
2023-04-26T03:01:56.992Z,3.30
2023-04-26T03:04:25.329Z,3.70
2023-04-26T03:06:53.450Z,3.70
2023-04-26T03:09:22.468Z,4.00
2023-04-26T03:11:52.401Z,4.00
2023-04-26T03:14:21.169Z,3.90
2023-04-26T03:16:49.296Z,3.50
2023-04-26T03:19:17.661Z,3.80
2023-04-26T03:21:46.114Z,4.30
2023-04-26T03:24:14.407Z,4.20
2023-04-26T03:26:42.468Z,4.20
2023-04-26T03:29:10.733Z,4.20
2023-04-26T03:31:39.254Z,4.00
2023-04-26T03:34:08.093Z,4.20
2023-04-26T03:36:36.466Z,3.90
2023-04-26T03:39:06.303Z,4.40
2023-04-26T03:41:36.917Z,3.80
2023-04-26T03:44:06.091Z,3.40
2023-04-26T03:46:34.086Z,4.10
2023-04-26T03:49:02.169Z,4.00
2023-04-26T03:51:31.474Z,4.60
2023-04-26T03:56:27.820Z,4.50
2023-04-26T03:58:56.036Z,3.80
2023-04-26T04:01:26.223Z,4.40
2023-04-26T04:03:54.802Z,4.30
2023-04-26T04:06:23.082Z,4.10
2023-04-26T04:08:52.096Z,4.10
2023-04-26T04:11:20.673Z,4.50
2023-04-26T04:13:49.108Z,3.70
2023-04-26T04:16:17.389Z,4.00
2023-04-26T04:18:45.688Z,4.00
2023-04-26T04:21:13.658Z,3.70
2023-04-26T04:23:42.550Z,3.90
2023-04-26T04:26:12.773Z,4.30
2023-04-26T04:28:41.734Z,4.60
2023-04-26T04:31:10.177Z,4.70
2023-04-26T04:36:08.535Z,4.20
2023-04-26T04:38:37.618Z,4.20
2023-04-26T04:41:08.639Z,3.80
2023-04-26T04:43:37.565Z,3.90
2023-04-26T04:46:12.681Z,3.80
2023-04-26T04:48:43.301Z,3.40
2023-04-26T04:51:12.124Z,3.40
2023-04-26T04:53:40.356Z,3.00
2023-04-26T04:56:08.995Z,3.60
2023-04-26T04:58:37.394Z,3.60
2023-04-26T05:01:06.254Z,3.80
2023-04-26T05:03:46.679Z,2.80
2023-04-26T05:06:14.955Z,3.30
2023-04-26T05:08:43.117Z,3.50
2023-04-26T05:11:11.382Z,3.40
2023-04-26T05:13:39.523Z,3.40
2023-04-26T05:16:07.944Z,3.10
2023-04-26T05:18:36.017Z,3.20
2023-04-26T05:21:04.354Z,3.60
2023-04-26T05:23:32.425Z,3.50
2023-04-26T05:26:07.870Z,3.90
2023-04-26T05:28:57.962Z,3.60
2023-04-26T05:31:32.030Z,3.90
2023-04-26T05:34:05.878Z,4.00
2023-04-26T05:36:37.945Z,4.00
2023-04-26T05:39:07.151Z,4.00
2023-04-26T05:44:03.599Z,4.10
2023-04-26T05:46:31.629Z,4.10
2023-04-26T05:48:59.636Z,4.20
2023-04-26T05:51:29.355Z,4.10
2023-04-26T05:53:58.044Z,3.60
2023-04-26T05:58:55.001Z,4.00
2023-04-26T06:01:23.175Z,4.10
2023-04-26T06:03:52.694Z,4.20
2023-04-26T06:06:23.617Z,3.90
2023-04-26T06:08:52.301Z,4.20
2023-04-26T06:11:21.669Z,5.20
2023-04-26T06:13:49.889Z,5.10
2023-04-26T06:16:19.012Z,5.80
2023-04-26T06:18:49.361Z,5.10
2023-04-26T06:21:17.489Z,6.10
2023-04-26T06:23:45.468Z,5.60
2023-04-26T06:26:13.716Z,5.80
2023-04-26T06:28:42.422Z,5.50
2023-04-26T06:31:10.940Z,5.60
2023-04-26T06:33:39.109Z,5.80
2023-04-26T06:36:12.021Z,6.30
2023-04-26T06:38:40.411Z,5.90
2023-04-26T06:41:09.334Z,5.90
2023-04-26T06:43:37.882Z,6.10
2023-04-26T06:46:20.129Z,5.70
2023-04-26T06:48:55.460Z,6.10
2023-04-26T06:51:23.537Z,5.70
2023-04-26T06:53:52.982Z,6.80
2023-04-26T06:56:21.810Z,6.70
2023-04-26T06:59:03.823Z,6.80
2023-04-26T07:01:36.305Z,6.80
2023-04-26T07:04:08.142Z,6.80
2023-04-26T07:06:39.009Z,7.40
2023-04-26T07:09:08.032Z,6.50
2023-04-26T07:11:36.112Z,7.10
2023-04-26T07:14:05.361Z,7.60
2023-04-26T07:16:33.505Z,7.40
2023-04-26T07:19:02.116Z,7.30
2023-04-26T07:21:30.042Z,7.80
2023-04-26T07:23:58.466Z,7.70
2023-04-26T07:26:26.923Z,7.70
2023-04-26T07:28:55.628Z,8.50
2023-04-26T07:31:23.622Z,7.70
2023-04-26T07:33:52.624Z,8.30
2023-04-26T07:38:52.197Z,7.70
2023-04-26T07:41:20.398Z,6.80
2023-04-26T07:43:48.887Z,7.70
2023-04-26T07:46:16.985Z,7.70
2023-04-26T07:48:45.025Z,7.70
2023-04-26T07:51:14.117Z,7.20
2023-04-26T07:53:42.523Z,7.50
2023-04-26T07:56:10.891Z,8.20
2023-04-26T07:58:39.790Z,8.40
2023-04-26T08:01:08.798Z,7.30
2023-04-26T08:03:37.176Z,8.30
2023-04-26T08:06:05.904Z,8.60
2023-04-26T08:08:35.366Z,8.40
2023-04-26T08:11:08.132Z,7.80
2023-04-26T08:13:36.392Z,7.40
2023-04-26T08:16:04.770Z,8.10
2023-04-26T08:18:33.645Z,8.00
2023-04-26T08:21:02.508Z,8.40
2023-04-26T08:23:35.832Z,8.30
2023-04-26T08:26:04.228Z,8.50
2023-04-26T08:28:33.219Z,8.90
2023-04-26T08:31:01.443Z,6.90
2023-04-26T08:33:29.626Z,8.80
2023-04-26T08:36:00.214Z,7.90
2023-04-26T08:38:29.646Z,6.40
2023-04-26T08:41:03.103Z,7.20
2023-04-26T08:43:31.372Z,7.50
2023-04-26T08:46:01.596Z,7.70
2023-04-26T08:48:36.312Z,8.20
2023-04-26T08:51:06.288Z,8.10
2023-04-26T08:53:36.360Z,8.50
2023-04-26T08:56:05.394Z,9.00
2023-04-26T09:01:03.649Z,7.70
2023-04-26T09:03:32.102Z,8.00
2023-04-26T09:06:03.847Z,8.00
2023-04-26T09:08:36.937Z,7.70
2023-04-26T09:11:05.208Z,7.80
2023-04-26T09:13:33.372Z,7.80
2023-04-26T09:16:03.497Z,7.40
2023-04-26T09:18:34.337Z,7.90
2023-04-26T09:21:07.912Z,7.50
2023-04-26T09:23:36.159Z,6.20
2023-04-26T09:26:21.684Z,7.70
2023-04-26T09:28:50.963Z,6.70
2023-04-26T09:31:40.503Z,7.00
2023-04-26T09:34:10.768Z,6.20
2023-04-26T09:36:57.284Z,7.10
2023-04-26T09:39:34.299Z,6.10
2023-04-26T09:42:04.139Z,6.00
2023-04-26T09:44:33.630Z,7.00
2023-04-26T09:47:04.479Z,6.80
2023-04-26T09:49:52.942Z,6.20
2023-04-26T09:52:22.439Z,5.20
2023-04-26T09:54:54.712Z,6.30
2023-04-26T09:57:23.700Z,6.90
2023-04-26T09:59:55.563Z,5.70
2023-04-26T10:02:28.559Z,5.40
2023-04-26T10:05:00.198Z,5.90
2023-04-26T10:07:30.537Z,5.00
2023-04-26T10:09:59.011Z,5.80
2023-04-26T10:12:27.606Z,6.50
2023-04-26T10:14:57.760Z,5.80
2023-04-26T10:17:26.025Z,5.80
2023-04-26T10:19:58.362Z,6.00
2023-04-26T10:22:31.402Z,6.40
2023-04-26T10:25:00.254Z,5.30
2023-04-26T10:27:43.980Z,5.90
2023-04-26T10:30:14.166Z,6.30
2023-04-26T10:32:57.634Z,5.70
2023-04-26T10:35:30.961Z,5.50
2023-04-26T10:38:01.942Z,4.90
2023-04-26T10:40:32.730Z,4.80
2023-04-26T10:43:16.260Z,4.80
2023-04-26T10:45:46.408Z,5.10
2023-04-26T10:48:17.646Z,4.90
2023-04-26T10:51:12.507Z,4.70
2023-04-26T10:53:52.267Z,4.40
2023-04-26T10:56:23.941Z,4.40
2023-04-26T11:01:44.163Z,4.70
2023-04-26T11:04:13.225Z,4.60
2023-04-26T11:09:41.764Z,4.40
2023-04-26T11:12:14.810Z,4.90
2023-04-26T11:14:45.638Z,4.10
2023-04-26T11:17:13.935Z,4.50
2023-04-26T11:19:42.124Z,3.90
2023-04-26T11:22:11.015Z,4.10
2023-04-26T11:24:39.235Z,3.90
2023-04-26T11:27:11.470Z,4.40
2023-04-26T11:29:39.956Z,4.50
2023-04-26T11:32:08.369Z,4.00
2023-04-26T11:34:39.335Z,4.20
2023-04-26T11:37:08.233Z,4.50
2023-04-26T11:39:37.242Z,4.10
2023-04-26T11:42:09.740Z,3.70
2023-04-26T11:44:38.813Z,3.60
2023-04-26T11:47:08.112Z,3.30
2023-04-26T11:49:37.887Z,3.80
2023-04-26T11:52:08.280Z,3.30
2023-04-26T11:54:38.189Z,3.20
2023-04-26T11:57:17.922Z,3.30
2023-04-26T11:59:47.004Z,3.40
2023-04-26T12:02:15.217Z,3.30
2023-04-26T12:04:44.681Z,3.60
2023-04-26T12:07:18.700Z,3.90
2023-04-26T12:09:46.850Z,4.10
2023-04-26T12:12:14.921Z,3.20
2023-04-26T12:14:42.941Z,3.70
2023-04-26T12:17:11.431Z,3.00
2023-04-26T12:19:41.352Z,3.40
2023-04-26T12:22:09.701Z,3.60
2023-04-26T12:24:38.047Z,4.00
2023-04-26T12:27:07.895Z,3.50
2023-04-26T12:29:36.648Z,3.60
2023-04-26T12:32:05.179Z,3.20
2023-04-26T12:34:33.517Z,2.90
2023-04-26T12:37:01.598Z,3.40
2023-04-26T12:39:29.910Z,3.30
2023-04-26T12:41:58.031Z,3.50
2023-04-26T12:44:27.026Z,3.20
2023-04-26T12:46:55.116Z,2.90
2023-04-26T12:49:23.057Z,2.90
2023-04-26T12:51:51.347Z,2.70
2023-04-26T12:54:19.646Z,3.00
2023-04-26T12:56:48.618Z,2.80
2023-04-26T12:59:16.824Z,3.10
2023-04-26T13:01:45.172Z,3.20
2023-04-26T13:04:13.630Z,3.00
2023-04-26T13:06:42.034Z,3.10
2023-04-26T13:09:12.985Z,3.30
2023-04-26T13:11:41.448Z,3.60
2023-04-26T13:14:09.627Z,3.20
2023-04-26T13:16:42.419Z,3.50
2023-04-26T13:19:11.328Z,3.20
2023-04-26T13:21:41.139Z,3.60
2023-04-26T13:24:09.155Z,3.40
2023-04-26T13:26:37.677Z,2.70
2023-04-26T13:29:05.692Z,2.70
2023-04-26T13:31:34.136Z,2.90
2023-04-26T13:34:03.776Z,2.80
2023-04-26T13:36:32.925Z,3.20
2023-04-26T13:41:33.396Z,3.10
2023-04-26T13:44:03.421Z,3.20
2023-04-26T13:46:31.627Z,3.10
2023-04-26T13:48:59.946Z,3.70
2023-04-26T13:51:30.703Z,4.10
2023-04-26T13:53:58.953Z,3.30
2023-04-26T13:56:27.260Z,3.20
2023-04-26T13:58:58.736Z,3.30
2023-04-26T14:01:28.046Z,3.50
2023-04-26T14:03:56.426Z,3.10
2023-04-26T14:06:24.801Z,4.30
2023-04-26T14:08:52.982Z,3.30
2023-04-26T14:11:21.493Z,3.50
2023-04-26T14:13:51.793Z,3.20
2023-04-26T14:16:23.095Z,3.50
2023-04-26T14:18:51.967Z,3.40
2023-04-26T14:21:20.076Z,2.90
2023-04-26T14:23:48.206Z,2.90
2023-04-26T14:26:17.199Z,3.00
2023-04-26T14:28:45.488Z,3.00
2023-04-26T14:31:13.870Z,2.70
2023-04-26T14:33:42.467Z,2.60
2023-04-26T14:36:11.010Z,2.70
2023-04-26T14:38:43.112Z,3.20
2023-04-26T14:41:19.000Z,3.40
2023-04-26T14:43:47.495Z,2.60
2023-04-26T14:46:16.036Z,2.50
2023-04-26T14:48:44.720Z,2.90
2023-04-26T14:51:13.298Z,3.10
2023-04-26T14:53:41.407Z,3.30
2023-04-26T14:56:09.841Z,2.80
2023-04-26T14:58:38.117Z,4.20
2023-04-26T15:01:06.631Z,2.70
2023-04-26T15:03:34.972Z,2.90
2023-04-26T15:06:03.552Z,2.60
2023-04-26T15:08:32.953Z,2.60
2023-04-26T15:11:01.058Z,2.60
2023-04-26T15:13:29.017Z,2.80
2023-04-26T15:15:57.000Z,2.60
2023-04-26T15:18:25.081Z,2.60
2023-04-26T15:20:53.420Z,2.70
2023-04-26T15:23:21.584Z,3.00
2023-04-26T15:25:49.564Z,3.10
2023-04-26T15:28:18.000Z,3.00
2023-04-26T15:30:46.428Z,2.60
2023-04-26T15:33:17.111Z,2.90
2023-04-26T15:35:45.528Z,2.70
2023-04-26T15:38:13.602Z,3.00
2023-04-26T15:40:41.670Z,2.50
2023-04-26T15:43:09.626Z,2.60
2023-04-26T15:45:37.614Z,3.00
2023-04-26T15:48:06.049Z,3.40
2023-04-26T15:50:34.065Z,3.30
2023-04-26T15:53:02.158Z,3.20
2023-04-26T15:55:33.386Z,2.70
2023-04-26T15:58:01.665Z,2.60
2023-04-26T16:00:31.372Z,3.10
2023-04-26T16:02:59.646Z,3.20
2023-04-26T16:05:28.041Z,3.20
2023-04-26T16:07:56.418Z,3.60
2023-04-26T16:10:40.423Z,3.10
2023-04-26T16:13:08.753Z,2.90
2023-04-26T16:15:36.912Z,2.40
2023-04-26T16:18:05.044Z,2.50
2023-04-26T16:20:33.292Z,2.50
2023-04-26T16:23:01.575Z,2.00
2023-04-26T16:25:30.045Z,1.90
2023-04-26T16:27:58.319Z,2.20
2023-04-26T16:30:26.428Z,3.00
2023-04-26T16:32:54.539Z,2.40
2023-04-26T16:35:23.126Z,2.10
2023-04-26T16:37:51.618Z,2.00
2023-04-26T16:40:19.982Z,2.30
2023-04-26T16:42:48.259Z,2.20
2023-04-26T16:45:16.787Z,2.70
2023-04-26T16:47:45.061Z,2.40
2023-04-26T16:50:13.210Z,2.60
2023-04-26T16:52:41.587Z,3.10
2023-04-26T16:55:10.094Z,3.10
2023-04-26T16:57:38.327Z,3.00
2023-04-26T17:00:11.610Z,3.10
2023-04-26T17:02:41.060Z,2.70
2023-04-26T17:05:10.386Z,5.20
2023-04-26T17:07:38.811Z,6.30
2023-04-26T17:10:07.484Z,8.60
2023-04-26T17:12:35.509Z,11.90
2023-04-26T17:15:04.956Z,13.00
2023-04-26T17:17:33.312Z,10.10
2023-04-26T17:20:01.301Z,9.40
2023-04-26T17:22:29.425Z,6.30
2023-04-26T17:24:57.461Z,5.20
2023-04-26T17:27:26.962Z,4.40
2023-04-26T17:29:54.999Z,3.00
2023-04-26T17:32:23.246Z,3.20
2023-04-26T17:34:51.372Z,3.50
2023-04-26T17:37:19.568Z,2.80
2023-04-26T17:39:47.634Z,3.30
2023-04-26T17:42:16.019Z,3.70
2023-04-26T17:44:44.014Z,3.60
2023-04-26T17:47:12.158Z,2.80
2023-04-26T17:49:40.229Z,2.80
2023-04-26T17:52:08.262Z,3.00
2023-04-26T17:54:36.887Z,3.10
2023-04-26T17:57:04.917Z,2.80
2023-04-26T17:59:33.130Z,3.70
2023-04-26T18:02:02.946Z,5.00
2023-04-26T18:04:31.543Z,3.40
2023-04-26T18:07:00.244Z,3.20
2023-04-26T18:09:31.950Z,3.00
2023-04-26T18:12:00.251Z,3.30
2023-04-26T18:14:28.734Z,3.40
2023-04-26T18:16:57.963Z,3.20
2023-04-26T18:19:26.427Z,2.80
2023-04-26T18:21:54.487Z,3.30
2023-04-26T18:24:22.551Z,3.60
2023-04-26T18:26:50.729Z,3.50
2023-04-26T18:29:18.719Z,3.30
2023-04-26T18:31:47.032Z,3.80
2023-04-26T18:34:15.464Z,2.80
2023-04-26T18:36:43.532Z,3.70
2023-04-26T18:39:11.708Z,3.70
2023-04-26T18:41:42.550Z,3.90
2023-04-26T18:44:13.279Z,3.70
2023-04-26T18:46:43.150Z,3.30
2023-04-26T18:49:11.567Z,2.70
2023-04-26T18:51:39.852Z,3.80
2023-04-26T18:54:07.999Z,3.20
2023-04-26T18:56:37.707Z,3.20
2023-04-26T18:59:05.808Z,3.00
2023-04-26T19:01:35.293Z,3.50
2023-04-26T19:04:06.863Z,3.30
2023-04-26T19:06:35.058Z,4.70
2023-04-26T19:09:04.553Z,3.90
2023-04-26T19:11:32.851Z,3.20
2023-04-26T19:14:02.418Z,3.50
2023-04-26T19:16:31.012Z,3.00
2023-04-26T19:18:59.281Z,3.00
2023-04-26T19:21:27.882Z,2.70
2023-04-26T19:23:56.046Z,3.40
2023-04-26T19:26:24.533Z,8.60
2023-04-26T19:28:52.621Z,8.40
2023-04-26T19:31:21.040Z,6.60
2023-04-26T19:33:49.255Z,4.80
2023-04-26T19:36:17.631Z,4.40
2023-04-26T19:38:45.858Z,5.10
2023-04-26T19:41:14.224Z,4.10
2023-04-26T19:43:42.363Z,4.40
2023-04-26T19:46:14.497Z,4.90
2023-04-26T19:48:42.647Z,4.30
2023-04-26T19:51:17.845Z,4.60
2023-04-26T19:53:46.221Z,4.90
2023-04-26T19:56:14.505Z,5.60
2023-04-26T19:58:43.085Z,5.70
2023-04-26T20:01:11.345Z,9.50
2023-04-26T20:03:41.588Z,9.80
2023-04-26T20:06:10.524Z,7.60
2023-04-26T20:08:38.651Z,8.70
2023-04-26T20:11:07.334Z,8.60
2023-04-26T20:13:35.434Z,7.00
2023-04-26T20:16:03.822Z,6.00
2023-04-26T20:18:32.162Z,4.80
2023-04-26T20:21:00.442Z,4.60
2023-04-26T20:23:28.611Z,5.90
2023-04-26T20:25:56.886Z,5.00
2023-04-26T20:28:25.914Z,5.20
2023-04-26T20:30:54.072Z,6.10
2023-04-26T20:33:22.546Z,5.70
2023-04-26T20:35:51.774Z,4.60
2023-04-26T20:38:20.834Z,4.80
2023-04-26T20:40:49.070Z,5.50
2023-04-26T20:43:17.182Z,4.10
2023-04-26T20:45:45.393Z,4.30
2023-04-26T20:48:13.532Z,4.30
2023-04-26T20:50:41.730Z,4.70
2023-04-26T20:53:09.881Z,4.50
2023-04-26T20:55:38.153Z,3.70
2023-04-26T20:58:06.534Z,3.60
2023-04-26T21:00:35.833Z,3.50
2023-04-26T21:03:06.154Z,3.40
2023-04-26T21:05:34.697Z,4.70
2023-04-26T21:08:04.048Z,4.20
2023-04-26T21:10:32.541Z,3.80
2023-04-26T21:13:00.992Z,3.60
2023-04-26T21:15:29.632Z,3.70
2023-04-26T21:17:57.823Z,3.80
2023-04-26T21:20:26.298Z,3.50
2023-04-26T21:22:54.428Z,3.80
2023-04-26T21:25:22.852Z,3.60
2023-04-26T21:27:51.604Z,4.30
2023-04-26T21:30:20.357Z,3.70
2023-04-26T21:32:48.690Z,3.80
2023-04-26T21:35:16.843Z,3.60
2023-04-26T21:37:44.954Z,3.80
2023-04-26T21:40:13.499Z,3.50
2023-04-26T21:42:46.605Z,3.60
2023-04-26T21:45:19.663Z,3.70
2023-04-26T21:47:47.673Z,3.90
2023-04-26T21:50:16.017Z,3.00
2023-04-26T21:52:44.017Z,2.60
2023-04-26T21:55:12.164Z,3.70
2023-04-26T21:57:40.338Z,3.00
2023-04-26T22:00:11.723Z,3.10
2023-04-26T22:02:42.968Z,2.60
2023-04-26T22:05:11.337Z,2.90
2023-04-26T22:07:39.379Z,2.80
2023-04-26T22:10:07.960Z,2.70
2023-04-26T22:12:36.242Z,3.10
2023-04-26T22:15:04.763Z,3.10
2023-04-26T22:17:32.915Z,3.20
2023-04-26T22:20:01.270Z,2.90
2023-04-26T22:22:29.658Z,3.20
2023-04-26T22:24:57.935Z,2.70
2023-04-26T22:27:26.012Z,2.80
2023-04-26T22:29:54.185Z,3.10
2023-04-26T22:32:22.450Z,3.10
2023-04-26T22:34:50.935Z,2.50
2023-04-26T22:37:21.364Z,2.70
2023-04-26T22:39:50.107Z,3.10
2023-04-26T22:42:18.118Z,3.00
2023-04-26T22:44:47.007Z,2.80
2023-04-26T22:47:15.086Z,2.90
2023-04-26T22:49:43.166Z,3.30
2023-04-26T22:52:17.328Z,3.10
2023-04-26T22:54:56.503Z,2.50
2023-04-26T22:57:24.582Z,2.70
2023-04-26T22:59:52.748Z,3.30
2023-04-26T23:02:21.140Z,2.70
2023-04-26T23:04:49.540Z,2.90
2023-04-26T23:07:17.734Z,3.20
2023-04-26T23:09:46.142Z,2.90
2023-04-26T23:12:21.609Z,3.30
2023-04-26T23:14:50.815Z,3.30
2023-04-26T23:19:48.639Z,2.60
2023-04-26T23:22:16.746Z,2.90
2023-04-26T23:24:44.841Z,3.00
2023-04-26T23:27:13.133Z,2.80
2023-04-26T23:29:41.187Z,2.80
2023-04-26T23:32:09.463Z,3.10
2023-04-26T23:34:37.532Z,3.20
2023-04-26T23:37:07.224Z,3.40
2023-04-26T23:39:36.507Z,3.50
2023-04-26T23:42:04.928Z,3.30
2023-04-26T23:44:32.999Z,3.10
2023-04-26T23:47:01.169Z,3.40
2023-04-26T23:49:29.450Z,3.10
2023-04-26T23:51:57.519Z,3.40
2023-04-26T23:54:25.588Z,3.30
2023-04-26T23:56:53.664Z,2.90
2023-04-26T23:59:21.740Z,3.20
